sensor_id;sensor_type;location;lat;lon;timestamp;P1;durP1;ratioP1;P2;durP2;ratioP2
30948;SDS011;17637;51.984;21.208;2023-01-19T00:01:03;54.45;;;33.45;;
30948;SDS011;17637;51.984;21.208;2023-01-19T00:03:35;50.08;;;31.15;;
30948;SDS011;17637;51.984;21.208;2023-01-19T00:06:07;56.33;;;35.25;;
30948;SDS011;17637;51.984;21.208;2023-01-19T00:08:40;59.72;;;35.72;;
30948;SDS011;17637;51.984;21.208;2023-01-19T00:11:12;53.85;;;32.58;;
30948;SDS011;17637;51.984;21.208;2023-01-19T00:13:44;55.45;;;35.75;;
30948;SDS011;17637;51.984;21.208;2023-01-19T00:16:24;52.40;;;32.45;;
30948;SDS011;17637;51.984;21.208;2023-01-19T00:18:56;48.65;;;31.67;;
30948;SDS011;17637;51.984;21.208;2023-01-19T00:21:28;51.55;;;32.38;;
30948;SDS011;17637;51.984;21.208;2023-01-19T00:24:00;56.08;;;33.78;;
30948;SDS011;17637;51.984;21.208;2023-01-19T00:26:32;50.75;;;31.67;;
30948;SDS011;17637;51.984;21.208;2023-01-19T00:29:04;44.03;;;28.70;;
30948;SDS011;17637;51.984;21.208;2023-01-19T00:31:37;57.97;;;34.00;;
30948;SDS011;17637;51.984;21.208;2023-01-19T00:34:09;46.05;;;29.42;;
30948;SDS011;17637;51.984;21.208;2023-01-19T00:36:41;55.67;;;32.78;;
30948;SDS011;17637;51.984;21.208;2023-01-19T00:39:13;66.35;;;39.70;;
30948;SDS011;17637;51.984;21.208;2023-01-19T00:41:45;60.78;;;36.72;;
30948;SDS011;17637;51.984;21.208;2023-01-19T00:44:36;59.83;;;37.80;;
30948;SDS011;17637;51.984;21.208;2023-01-19T00:47:08;69.38;;;42.15;;
30948;SDS011;17637;51.984;21.208;2023-01-19T00:49:40;64.47;;;41.20;;
30948;SDS011;17637;51.984;21.208;2023-01-19T00:52:12;74.70;;;46.00;;
30948;SDS011;17637;51.984;21.208;2023-01-19T00:54:44;73.57;;;44.58;;
30948;SDS011;17637;51.984;21.208;2023-01-19T00:57:16;82.72;;;50.47;;
30948;SDS011;17637;51.984;21.208;2023-01-19T00:59:49;73.55;;;44.58;;
30948;SDS011;17637;51.984;21.208;2023-01-19T01:02:21;79.35;;;48.72;;
30948;SDS011;17637;51.984;21.208;2023-01-19T01:04:53;84.72;;;51.20;;
30948;SDS011;17637;51.984;21.208;2023-01-19T01:07:27;75.70;;;47.33;;
30948;SDS011;17637;51.984;21.208;2023-01-19T01:10:00;71.45;;;45.55;;
30948;SDS011;17637;51.984;21.208;2023-01-19T01:12:32;72.55;;;43.10;;
30948;SDS011;17637;51.984;21.208;2023-01-19T01:15:08;75.70;;;44.45;;
30948;SDS011;17637;51.984;21.208;2023-01-19T01:17:41;74.38;;;44.70;;
30948;SDS011;17637;51.984;21.208;2023-01-19T01:20:18;75.80;;;44.05;;
30948;SDS011;17637;51.984;21.208;2023-01-19T01:22:52;72.05;;;43.30;;
30948;SDS011;17637;51.984;21.208;2023-01-19T01:25:26;71.68;;;43.85;;
30948;SDS011;17637;51.984;21.208;2023-01-19T01:27:59;60.90;;;39.75;;
30948;SDS011;17637;51.984;21.208;2023-01-19T01:30:31;70.80;;;42.40;;
30948;SDS011;17637;51.984;21.208;2023-01-19T01:33:03;69.22;;;41.33;;
30948;SDS011;17637;51.984;21.208;2023-01-19T01:35:35;65.03;;;39.70;;
30948;SDS011;17637;51.984;21.208;2023-01-19T01:38:08;61.75;;;38.30;;
30948;SDS011;17637;51.984;21.208;2023-01-19T01:40:40;64.65;;;38.65;;
30948;SDS011;17637;51.984;21.208;2023-01-19T01:43:13;62.08;;;38.40;;
30948;SDS011;17637;51.984;21.208;2023-01-19T01:45:47;55.60;;;37.17;;
30948;SDS011;17637;51.984;21.208;2023-01-19T01:48:19;53.83;;;35.08;;
30948;SDS011;17637;51.984;21.208;2023-01-19T01:51:03;49.10;;;31.80;;
30948;SDS011;17637;51.984;21.208;2023-01-19T01:54:10;44.08;;;27.92;;
30948;SDS011;17637;51.984;21.208;2023-01-19T01:56:50;47.03;;;30.88;;
30948;SDS011;17637;51.984;21.208;2023-01-19T01:59:25;47.03;;;29.65;;
30948;SDS011;17637;51.984;21.208;2023-01-19T02:02:06;42.75;;;27.77;;
30948;SDS011;17637;51.984;21.208;2023-01-19T02:05:02;38.92;;;25.85;;
30948;SDS011;17637;51.984;21.208;2023-01-19T02:07:41;36.15;;;24.48;;
30948;SDS011;17637;51.984;21.208;2023-01-19T02:10:38;38.65;;;24.42;;
30948;SDS011;17637;51.984;21.208;2023-01-19T02:13:32;34.40;;;22.60;;
30948;SDS011;17637;51.984;21.208;2023-01-19T02:16:07;41.78;;;27.00;;
30948;SDS011;17637;51.984;21.208;2023-01-19T02:18:41;37.50;;;24.88;;
30948;SDS011;17637;51.984;21.208;2023-01-19T02:21:17;38.03;;;24.70;;
30948;SDS011;17637;51.984;21.208;2023-01-19T02:24:14;41.58;;;26.73;;
30948;SDS011;17637;51.984;21.208;2023-01-19T02:26:48;40.25;;;25.67;;
30948;SDS011;17637;51.984;21.208;2023-01-19T02:29:21;39.38;;;25.98;;
30948;SDS011;17637;51.984;21.208;2023-01-19T02:31:57;35.70;;;23.73;;
30948;SDS011;17637;51.984;21.208;2023-01-19T02:34:30;38.25;;;25.33;;
30948;SDS011;17637;51.984;21.208;2023-01-19T02:37:05;36.03;;;24.67;;
30948;SDS011;17637;51.984;21.208;2023-01-19T02:39:43;35.28;;;23.27;;
30948;SDS011;17637;51.984;21.208;2023-01-19T02:42:23;33.17;;;23.20;;
30948;SDS011;17637;51.984;21.208;2023-01-19T02:44:59;33.70;;;23.58;;
30948;SDS011;17637;51.984;21.208;2023-01-19T02:47:37;37.25;;;25.25;;
30948;SDS011;17637;51.984;21.208;2023-01-19T02:59:04;38.47;;;25.83;;
30948;SDS011;17637;51.984;21.208;2023-01-19T03:05:05;38.28;;;26.00;;
30948;SDS011;17637;51.984;21.208;2023-01-19T03:11:05;39.20;;;25.20;;
30948;SDS011;17637;51.984;21.208;2023-01-19T03:16:33;29.48;;;20.40;;
30948;SDS011;17637;51.984;21.208;2023-01-19T03:19:16;34.78;;;21.65;;
30948;SDS011;17637;51.984;21.208;2023-01-19T03:24:58;32.30;;;21.90;;
30948;SDS011;17637;51.984;21.208;2023-01-19T03:27:32;30.65;;;20.77;;
30948;SDS011;17637;51.984;21.208;2023-01-19T03:30:16;31.48;;;20.77;;
30948;SDS011;17637;51.984;21.208;2023-01-19T03:32:58;32.85;;;22.90;;
30948;SDS011;17637;51.984;21.208;2023-01-19T03:35:38;27.52;;;19.52;;
30948;SDS011;17637;51.984;21.208;2023-01-19T03:38:15;35.22;;;23.83;;
30948;SDS011;17637;51.984;21.208;2023-01-19T03:40:53;37.92;;;25.30;;
30948;SDS011;17637;51.984;21.208;2023-01-19T03:43:32;41.60;;;25.63;;
30948;SDS011;17637;51.984;21.208;2023-01-19T03:46:07;36.85;;;24.52;;
30948;SDS011;17637;51.984;21.208;2023-01-19T03:48:41;32.75;;;22.60;;
30948;SDS011;17637;51.984;21.208;2023-01-19T03:51:13;34.60;;;23.33;;
30948;SDS011;17637;51.984;21.208;2023-01-19T03:53:47;37.30;;;23.83;;
30948;SDS011;17637;51.984;21.208;2023-01-19T03:56:21;33.75;;;22.73;;
30948;SDS011;17637;51.984;21.208;2023-01-19T03:58:55;37.28;;;24.45;;
30948;SDS011;17637;51.984;21.208;2023-01-19T04:01:27;35.88;;;23.42;;
30948;SDS011;17637;51.984;21.208;2023-01-19T04:03:59;35.00;;;23.33;;
30948;SDS011;17637;51.984;21.208;2023-01-19T04:06:31;44.05;;;27.50;;
30948;SDS011;17637;51.984;21.208;2023-01-19T04:09:03;46.25;;;28.88;;
30948;SDS011;17637;51.984;21.208;2023-01-19T04:11:35;41.83;;;26.65;;
30948;SDS011;17637;51.984;21.208;2023-01-19T04:14:07;41.47;;;27.60;;
30948;SDS011;17637;51.984;21.208;2023-01-19T04:16:39;40.22;;;28.45;;
30948;SDS011;17637;51.984;21.208;2023-01-19T04:19:11;38.45;;;25.27;;
30948;SDS011;17637;51.984;21.208;2023-01-19T04:21:44;38.92;;;24.40;;
30948;SDS011;17637;51.984;21.208;2023-01-19T04:24:19;43.25;;;27.58;;
30948;SDS011;17637;51.984;21.208;2023-01-19T04:26:51;47.10;;;30.08;;
30948;SDS011;17637;51.984;21.208;2023-01-19T04:29:24;37.47;;;24.27;;
30948;SDS011;17637;51.984;21.208;2023-01-19T04:31:56;39.90;;;26.50;;
30948;SDS011;17637;51.984;21.208;2023-01-19T04:34:28;37.05;;;24.42;;
30948;SDS011;17637;51.984;21.208;2023-01-19T04:37:00;36.50;;;25.33;;
30948;SDS011;17637;51.984;21.208;2023-01-19T04:39:32;37.05;;;24.65;;
30948;SDS011;17637;51.984;21.208;2023-01-19T04:42:04;36.33;;;24.15;;
30948;SDS011;17637;51.984;21.208;2023-01-19T04:44:36;36.08;;;24.80;;
30948;SDS011;17637;51.984;21.208;2023-01-19T04:47:08;32.90;;;21.17;;
30948;SDS011;17637;51.984;21.208;2023-01-19T04:49:41;37.72;;;25.17;;
30948;SDS011;17637;51.984;21.208;2023-01-19T04:52:13;36.50;;;24.58;;
30948;SDS011;17637;51.984;21.208;2023-01-19T04:54:45;35.72;;;25.02;;
30948;SDS011;17637;51.984;21.208;2023-01-19T04:57:17;37.88;;;25.83;;
30948;SDS011;17637;51.984;21.208;2023-01-19T04:59:50;38.65;;;25.73;;
30948;SDS011;17637;51.984;21.208;2023-01-19T05:02:22;41.90;;;27.98;;
30948;SDS011;17637;51.984;21.208;2023-01-19T05:04:55;44.38;;;28.63;;
30948;SDS011;17637;51.984;21.208;2023-01-19T05:07:26;58.90;;;33.42;;
30948;SDS011;17637;51.984;21.208;2023-01-19T05:09:59;68.72;;;38.55;;
30948;SDS011;17637;51.984;21.208;2023-01-19T05:12:31;49.28;;;30.98;;
30948;SDS011;17637;51.984;21.208;2023-01-19T05:15:04;40.95;;;28.45;;
30948;SDS011;17637;51.984;21.208;2023-01-19T05:17:38;42.50;;;28.38;;
30948;SDS011;17637;51.984;21.208;2023-01-19T05:20:10;42.10;;;28.50;;
30948;SDS011;17637;51.984;21.208;2023-01-19T05:22:50;43.97;;;30.20;;
30948;SDS011;17637;51.984;21.208;2023-01-19T05:25:22;40.88;;;28.30;;
30948;SDS011;17637;51.984;21.208;2023-01-19T05:27:54;46.03;;;30.52;;
30948;SDS011;17637;51.984;21.208;2023-01-19T05:30:27;40.47;;;27.35;;
30948;SDS011;17637;51.984;21.208;2023-01-19T05:32:59;45.78;;;29.65;;
30948;SDS011;17637;51.984;21.208;2023-01-19T05:35:31;44.22;;;28.15;;
30948;SDS011;17637;51.984;21.208;2023-01-19T05:38:06;39.15;;;27.02;;
30948;SDS011;17637;51.984;21.208;2023-01-19T05:40:38;37.72;;;24.88;;
30948;SDS011;17637;51.984;21.208;2023-01-19T05:43:10;44.70;;;28.45;;
30948;SDS011;17637;51.984;21.208;2023-01-19T05:45:42;38.50;;;24.90;;
30948;SDS011;17637;51.984;21.208;2023-01-19T05:48:14;35.53;;;24.08;;
30948;SDS011;17637;51.984;21.208;2023-01-19T05:50:46;32.08;;;20.83;;
30948;SDS011;17637;51.984;21.208;2023-01-19T05:53:19;30.65;;;22.25;;
30948;SDS011;17637;51.984;21.208;2023-01-19T05:55:52;31.55;;;22.80;;
30948;SDS011;17637;51.984;21.208;2023-01-19T05:58:24;31.88;;;22.65;;
30948;SDS011;17637;51.984;21.208;2023-01-19T06:00:56;32.42;;;22.77;;
30948;SDS011;17637;51.984;21.208;2023-01-19T06:03:28;30.98;;;22.30;;
30948;SDS011;17637;51.984;21.208;2023-01-19T06:06:00;33.95;;;23.85;;
30948;SDS011;17637;51.984;21.208;2023-01-19T06:08:32;33.40;;;22.13;;
30948;SDS011;17637;51.984;21.208;2023-01-19T06:11:05;37.13;;;23.45;;
30948;SDS011;17637;51.984;21.208;2023-01-19T06:13:37;34.45;;;24.48;;
30948;SDS011;17637;51.984;21.208;2023-01-19T06:16:13;34.15;;;23.48;;
30948;SDS011;17637;51.984;21.208;2023-01-19T06:18:45;31.17;;;20.63;;
30948;SDS011;17637;51.984;21.208;2023-01-19T06:21:17;32.45;;;21.55;;
30948;SDS011;17637;51.984;21.208;2023-01-19T06:23:49;29.50;;;21.20;;
30948;SDS011;17637;51.984;21.208;2023-01-19T06:26:21;35.08;;;22.88;;
30948;SDS011;17637;51.984;21.208;2023-01-19T06:28:53;33.95;;;23.90;;
30948;SDS011;17637;51.984;21.208;2023-01-19T06:31:26;37.92;;;24.50;;
30948;SDS011;17637;51.984;21.208;2023-01-19T06:33:58;32.83;;;22.95;;
30948;SDS011;17637;51.984;21.208;2023-01-19T06:36:30;32.90;;;22.35;;
30948;SDS011;17637;51.984;21.208;2023-01-19T06:39:05;31.63;;;22.13;;
30948;SDS011;17637;51.984;21.208;2023-01-19T06:41:37;36.15;;;24.65;;
30948;SDS011;17637;51.984;21.208;2023-01-19T06:44:09;37.10;;;24.02;;
30948;SDS011;17637;51.984;21.208;2023-01-19T06:46:41;32.90;;;22.40;;
30948;SDS011;17637;51.984;21.208;2023-01-19T06:49:13;34.20;;;23.65;;
30948;SDS011;17637;51.984;21.208;2023-01-19T06:51:45;31.23;;;22.92;;
30948;SDS011;17637;51.984;21.208;2023-01-19T06:54:17;33.00;;;23.45;;
30948;SDS011;17637;51.984;21.208;2023-01-19T06:56:49;34.60;;;23.00;;
30948;SDS011;17637;51.984;21.208;2023-01-19T06:59:22;36.58;;;25.15;;
30948;SDS011;17637;51.984;21.208;2023-01-19T07:01:55;29.45;;;22.30;;
30948;SDS011;17637;51.984;21.208;2023-01-19T07:04:27;32.47;;;22.33;;
30948;SDS011;17637;51.984;21.208;2023-01-19T07:06:59;33.38;;;22.05;;
30948;SDS011;17637;51.984;21.208;2023-01-19T07:09:32;35.20;;;23.95;;
30948;SDS011;17637;51.984;21.208;2023-01-19T07:12:04;32.92;;;22.45;;
30948;SDS011;17637;51.984;21.208;2023-01-19T07:14:36;30.63;;;21.67;;
30948;SDS011;17637;51.984;21.208;2023-01-19T07:17:08;32.17;;;22.48;;
30948;SDS011;17637;51.984;21.208;2023-01-19T07:19:41;34.90;;;23.17;;
30948;SDS011;17637;51.984;21.208;2023-01-19T07:22:13;33.47;;;22.67;;
30948;SDS011;17637;51.984;21.208;2023-01-19T07:24:45;35.17;;;24.27;;
30948;SDS011;17637;51.984;21.208;2023-01-19T07:27:17;35.35;;;23.15;;
30948;SDS011;17637;51.984;21.208;2023-01-19T07:29:49;40.78;;;28.02;;
30948;SDS011;17637;51.984;21.208;2023-01-19T07:32:21;41.72;;;27.67;;
30948;SDS011;17637;51.984;21.208;2023-01-19T07:34:53;32.30;;;23.67;;
30948;SDS011;17637;51.984;21.208;2023-01-19T07:37:25;36.95;;;26.15;;
30948;SDS011;17637;51.984;21.208;2023-01-19T07:39:57;36.45;;;26.27;;
30948;SDS011;17637;51.984;21.208;2023-01-19T07:42:29;37.20;;;26.85;;
30948;SDS011;17637;51.984;21.208;2023-01-19T07:45:01;39.03;;;26.20;;
30948;SDS011;17637;51.984;21.208;2023-01-19T07:47:33;30.38;;;22.35;;
30948;SDS011;17637;51.984;21.208;2023-01-19T07:50:05;31.55;;;22.63;;
30948;SDS011;17637;51.984;21.208;2023-01-19T07:52:37;29.60;;;21.08;;
30948;SDS011;17637;51.984;21.208;2023-01-19T07:55:09;28.73;;;22.27;;
30948;SDS011;17637;51.984;21.208;2023-01-19T07:57:41;34.80;;;24.52;;
30948;SDS011;17637;51.984;21.208;2023-01-19T08:00:13;30.73;;;21.92;;
30948;SDS011;17637;51.984;21.208;2023-01-19T08:02:45;31.08;;;22.40;;
30948;SDS011;17637;51.984;21.208;2023-01-19T08:05:20;31.30;;;22.55;;
30948;SDS011;17637;51.984;21.208;2023-01-19T08:07:52;33.33;;;22.92;;
30948;SDS011;17637;51.984;21.208;2023-01-19T08:10:25;29.55;;;22.33;;
30948;SDS011;17637;51.984;21.208;2023-01-19T08:12:58;35.53;;;25.30;;
30948;SDS011;17637;51.984;21.208;2023-01-19T08:15:31;34.13;;;23.33;;
30948;SDS011;17637;51.984;21.208;2023-01-19T08:18:03;35.75;;;25.73;;
30948;SDS011;17637;51.984;21.208;2023-01-19T08:20:37;32.97;;;23.25;;
30948;SDS011;17637;51.984;21.208;2023-01-19T08:23:09;36.47;;;26.48;;
30948;SDS011;17637;51.984;21.208;2023-01-19T08:25:41;32.03;;;23.42;;
30948;SDS011;17637;51.984;21.208;2023-01-19T08:28:17;39.70;;;27.27;;
30948;SDS011;17637;51.984;21.208;2023-01-19T08:30:49;40.03;;;26.90;;
30948;SDS011;17637;51.984;21.208;2023-01-19T08:33:25;31.00;;;22.83;;
30948;SDS011;17637;51.984;21.208;2023-01-19T08:35:57;31.27;;;23.10;;
30948;SDS011;17637;51.984;21.208;2023-01-19T08:38:28;32.33;;;22.83;;
30948;SDS011;17637;51.984;21.208;2023-01-19T08:41:01;30.02;;;22.00;;
30948;SDS011;17637;51.984;21.208;2023-01-19T08:43:32;34.35;;;24.52;;
30948;SDS011;17637;51.984;21.208;2023-01-19T08:46:05;36.38;;;25.83;;
30948;SDS011;17637;51.984;21.208;2023-01-19T08:48:37;34.75;;;23.38;;
30948;SDS011;17637;51.984;21.208;2023-01-19T08:51:13;38.80;;;26.05;;
30948;SDS011;17637;51.984;21.208;2023-01-19T08:53:46;37.97;;;26.48;;
30948;SDS011;17637;51.984;21.208;2023-01-19T08:56:18;39.55;;;26.67;;
30948;SDS011;17637;51.984;21.208;2023-01-19T08:58:51;38.50;;;26.23;;
30948;SDS011;17637;51.984;21.208;2023-01-19T09:01:39;39.78;;;25.55;;
30948;SDS011;17637;51.984;21.208;2023-01-19T09:04:12;34.10;;;24.30;;
30948;SDS011;17637;51.984;21.208;2023-01-19T09:06:44;32.85;;;24.40;;
30948;SDS011;17637;51.984;21.208;2023-01-19T09:09:15;33.85;;;22.90;;
30948;SDS011;17637;51.984;21.208;2023-01-19T09:11:47;33.80;;;24.65;;
30948;SDS011;17637;51.984;21.208;2023-01-19T09:14:19;36.05;;;27.08;;
30948;SDS011;17637;51.984;21.208;2023-01-19T09:16:52;35.95;;;24.85;;
30948;SDS011;17637;51.984;21.208;2023-01-19T09:19:24;34.95;;;25.45;;
30948;SDS011;17637;51.984;21.208;2023-01-19T09:21:56;38.15;;;26.75;;
30948;SDS011;17637;51.984;21.208;2023-01-19T09:24:30;38.35;;;28.05;;
30948;SDS011;17637;51.984;21.208;2023-01-19T09:27:02;35.90;;;27.05;;
30948;SDS011;17637;51.984;21.208;2023-01-19T09:29:34;33.97;;;24.75;;
30948;SDS011;17637;51.984;21.208;2023-01-19T09:32:07;33.58;;;25.20;;
30948;SDS011;17637;51.984;21.208;2023-01-19T09:34:41;44.83;;;29.42;;
30948;SDS011;17637;51.984;21.208;2023-01-19T09:37:14;42.42;;;30.67;;
30948;SDS011;17637;51.984;21.208;2023-01-19T09:39:46;37.17;;;28.13;;
30948;SDS011;17637;51.984;21.208;2023-01-19T09:45:18;27.58;;;22.27;;
30948;SDS011;17637;51.984;21.208;2023-01-19T09:47:58;25.23;;;17.15;;
30948;SDS011;17637;51.984;21.208;2023-01-19T09:50:33;25.13;;;17.50;;
30948;SDS011;17637;51.984;21.208;2023-01-19T09:53:10;27.20;;;18.73;;
30948;SDS011;17637;51.984;21.208;2023-01-19T09:55:47;29.98;;;18.52;;
30948;SDS011;17637;51.984;21.208;2023-01-19T09:58:20;28.83;;;21.00;;
30948;SDS011;17637;51.984;21.208;2023-01-19T10:00:56;37.03;;;21.65;;
30948;SDS011;17637;51.984;21.208;2023-01-19T10:06:11;72.13;;;35.42;;
30948;SDS011;17637;51.984;21.208;2023-01-19T10:08:55;26.98;;;19.70;;
30948;SDS011;17637;51.984;21.208;2023-01-19T10:11:53;37.22;;;23.73;;
30948;SDS011;17637;51.984;21.208;2023-01-19T10:14:35;28.27;;;18.58;;
30948;SDS011;17637;51.984;21.208;2023-01-19T10:17:19;27.65;;;18.65;;
30948;SDS011;17637;51.984;21.208;2023-01-19T10:20:15;26.25;;;19.13;;
30948;SDS011;17637;51.984;21.208;2023-01-19T10:22:54;26.20;;;18.70;;
30948;SDS011;17637;51.984;21.208;2023-01-19T10:25:30;30.00;;;19.75;;
30948;SDS011;17637;51.984;21.208;2023-01-19T10:28:03;28.02;;;18.30;;
30948;SDS011;17637;51.984;21.208;2023-01-19T10:30:35;28.60;;;20.02;;
30948;SDS011;17637;51.984;21.208;2023-01-19T10:33:10;28.70;;;20.60;;
30948;SDS011;17637;51.984;21.208;2023-01-19T10:35:44;31.63;;;22.35;;
30948;SDS011;17637;51.984;21.208;2023-01-19T10:38:19;29.38;;;21.77;;
30948;SDS011;17637;51.984;21.208;2023-01-19T10:40:56;33.65;;;23.55;;
30948;SDS011;17637;51.984;21.208;2023-01-19T10:43:41;31.88;;;23.20;;
30948;SDS011;17637;51.984;21.208;2023-01-19T10:46:16;32.88;;;24.58;;
30948;SDS011;17637;51.984;21.208;2023-01-19T10:49:04;33.72;;;23.67;;
30948;SDS011;17637;51.984;21.208;2023-01-19T10:51:45;29.85;;;20.77;;
30948;SDS011;17637;51.984;21.208;2023-01-19T10:54:19;34.38;;;24.33;;
30948;SDS011;17637;51.984;21.208;2023-01-19T10:56:56;36.13;;;23.80;;
30948;SDS011;17637;51.984;21.208;2023-01-19T11:02:24;32.45;;;21.80;;
30948;SDS011;17637;51.984;21.208;2023-01-19T11:04:59;31.17;;;21.92;;
30948;SDS011;17637;51.984;21.208;2023-01-19T11:07:32;35.33;;;23.90;;
30948;SDS011;17637;51.984;21.208;2023-01-19T11:15:34;41.92;;;27.17;;
30948;SDS011;17637;51.984;21.208;2023-01-19T11:21:10;34.97;;;23.60;;
30948;SDS011;17637;51.984;21.208;2023-01-19T11:23:51;27.17;;;19.38;;
30948;SDS011;17637;51.984;21.208;2023-01-19T11:26:31;24.50;;;17.30;;
30948;SDS011;17637;51.984;21.208;2023-01-19T11:29:10;21.10;;;15.95;;
30948;SDS011;17637;51.984;21.208;2023-01-19T11:31:48;24.70;;;18.27;;
30948;SDS011;17637;51.984;21.208;2023-01-19T11:34:23;28.45;;;17.33;;
30948;SDS011;17637;51.984;21.208;2023-01-19T11:37:01;26.38;;;19.83;;
30948;SDS011;17637;51.984;21.208;2023-01-19T11:39:46;26.50;;;19.00;;
30948;SDS011;17637;51.984;21.208;2023-01-19T11:42:19;25.83;;;19.90;;
30948;SDS011;17637;51.984;21.208;2023-01-19T11:47:43;28.17;;;20.67;;
30948;SDS011;17637;51.984;21.208;2023-01-19T11:50:24;26.10;;;19.42;;
30948;SDS011;17637;51.984;21.208;2023-01-19T11:55:57;38.65;;;27.00;;
30948;SDS011;17637;51.984;21.208;2023-01-19T11:58:42;39.83;;;27.48;;
30948;SDS011;17637;51.984;21.208;2023-01-19T12:01:20;39.45;;;28.35;;
30948;SDS011;17637;51.984;21.208;2023-01-19T12:07:02;62.88;;;48.05;;
30948;SDS011;17637;51.984;21.208;2023-01-19T12:09:39;51.55;;;39.03;;
30948;SDS011;17637;51.984;21.208;2023-01-19T12:17:58;35.47;;;26.45;;
30948;SDS011;17637;51.984;21.208;2023-01-19T12:20:34;40.67;;;27.65;;
30948;SDS011;17637;51.984;21.208;2023-01-19T12:26:19;55.20;;;38.35;;
30948;SDS011;17637;51.984;21.208;2023-01-19T12:29:19;76.20;;;47.33;;
30948;SDS011;17637;51.984;21.208;2023-01-19T12:34:44;80.25;;;46.58;;
30948;SDS011;17637;51.984;21.208;2023-01-19T12:40:19;80.53;;;46.50;;
30948;SDS011;17637;51.984;21.208;2023-01-19T12:42:58;64.22;;;42.08;;
30948;SDS011;17637;51.984;21.208;2023-01-19T12:45:34;42.90;;;28.73;;
30948;SDS011;17637;51.984;21.208;2023-01-19T12:48:22;41.90;;;28.33;;
30948;SDS011;17637;51.984;21.208;2023-01-19T12:50:55;35.33;;;24.98;;
30948;SDS011;17637;51.984;21.208;2023-01-19T12:53:27;35.42;;;24.55;;
30948;SDS011;17637;51.984;21.208;2023-01-19T12:56:01;35.85;;;25.42;;
30948;SDS011;17637;51.984;21.208;2023-01-19T12:58:39;33.33;;;23.55;;
30948;SDS011;17637;51.984;21.208;2023-01-19T13:01:19;42.38;;;30.77;;
30948;SDS011;17637;51.984;21.208;2023-01-19T13:09:31;34.28;;;24.17;;
30948;SDS011;17637;51.984;21.208;2023-01-19T13:12:10;36.95;;;26.60;;
30948;SDS011;17637;51.984;21.208;2023-01-19T13:14:44;33.83;;;23.83;;
30948;SDS011;17637;51.984;21.208;2023-01-19T13:17:24;39.45;;;26.92;;
30948;SDS011;17637;51.984;21.208;2023-01-19T13:20:02;36.25;;;25.70;;
30948;SDS011;17637;51.984;21.208;2023-01-19T13:25:48;35.95;;;25.30;;
30948;SDS011;17637;51.984;21.208;2023-01-19T13:28:27;35.15;;;23.20;;
30948;SDS011;17637;51.984;21.208;2023-01-19T13:31:03;37.30;;;25.40;;
30948;SDS011;17637;51.984;21.208;2023-01-19T13:33:41;39.92;;;26.02;;
30948;SDS011;17637;51.984;21.208;2023-01-19T13:36:37;49.92;;;31.00;;
30948;SDS011;17637;51.984;21.208;2023-01-19T13:39:26;43.40;;;27.10;;
30948;SDS011;17637;51.984;21.208;2023-01-19T13:42:01;47.00;;;30.00;;
30948;SDS011;17637;51.984;21.208;2023-01-19T13:44:37;44.97;;;28.63;;
30948;SDS011;17637;51.984;21.208;2023-01-19T13:47:15;38.05;;;25.63;;
30948;SDS011;17637;51.984;21.208;2023-01-19T13:49:55;51.63;;;33.78;;
30948;SDS011;17637;51.984;21.208;2023-01-19T13:52:29;53.47;;;31.30;;
30948;SDS011;17637;51.984;21.208;2023-01-19T13:55:02;43.67;;;26.58;;
30948;SDS011;17637;51.984;21.208;2023-01-19T13:57:39;41.45;;;27.65;;
30948;SDS011;17637;51.984;21.208;2023-01-19T14:00:19;39.22;;;27.20;;
30948;SDS011;17637;51.984;21.208;2023-01-19T14:03:01;37.83;;;26.67;;
30948;SDS011;17637;51.984;21.208;2023-01-19T14:05:50;38.22;;;24.75;;
30948;SDS011;17637;51.984;21.208;2023-01-19T14:08:23;35.72;;;24.52;;
30948;SDS011;17637;51.984;21.208;2023-01-19T14:13:31;41.92;;;28.38;;
30948;SDS011;17637;51.984;21.208;2023-01-19T14:16:15;39.85;;;26.83;;
30948;SDS011;17637;51.984;21.208;2023-01-19T14:18:57;43.85;;;28.80;;
30948;SDS011;17637;51.984;21.208;2023-01-19T14:21:37;48.90;;;30.08;;
30948;SDS011;17637;51.984;21.208;2023-01-19T14:24:17;41.35;;;26.70;;
30948;SDS011;17637;51.984;21.208;2023-01-19T14:26:51;42.05;;;28.40;;
30948;SDS011;17637;51.984;21.208;2023-01-19T14:32:12;46.95;;;31.63;;
30948;SDS011;17637;51.984;21.208;2023-01-19T14:34:51;39.45;;;27.15;;
30948;SDS011;17637;51.984;21.208;2023-01-19T14:37:35;44.10;;;29.80;;
30948;SDS011;17637;51.984;21.208;2023-01-19T14:42:58;43.42;;;29.02;;
30948;SDS011;17637;51.984;21.208;2023-01-19T14:45:37;40.92;;;27.60;;
30948;SDS011;17637;51.984;21.208;2023-01-19T14:48:17;42.88;;;30.02;;
30948;SDS011;17637;51.984;21.208;2023-01-19T14:50:54;44.45;;;29.35;;
30948;SDS011;17637;51.984;21.208;2023-01-19T14:53:37;45.60;;;31.38;;
30948;SDS011;17637;51.984;21.208;2023-01-19T14:56:09;49.85;;;34.15;;
30948;SDS011;17637;51.984;21.208;2023-01-19T14:58:41;51.88;;;33.03;;
30948;SDS011;17637;51.984;21.208;2023-01-19T15:01:13;47.15;;;31.63;;
30948;SDS011;17637;51.984;21.208;2023-01-19T15:03:45;46.67;;;30.15;;
30948;SDS011;17637;51.984;21.208;2023-01-19T15:06:18;46.42;;;31.23;;
30948;SDS011;17637;51.984;21.208;2023-01-19T15:08:52;50.92;;;34.58;;
30948;SDS011;17637;51.984;21.208;2023-01-19T15:11:34;54.38;;;36.47;;
30948;SDS011;17637;51.984;21.208;2023-01-19T15:14:07;51.42;;;32.58;;
30948;SDS011;17637;51.984;21.208;2023-01-19T15:16:43;52.38;;;34.67;;
30948;SDS011;17637;51.984;21.208;2023-01-19T15:19:16;54.38;;;35.85;;
30948;SDS011;17637;51.984;21.208;2023-01-19T15:21:48;58.17;;;38.10;;
30948;SDS011;17637;51.984;21.208;2023-01-19T15:24:20;64.55;;;41.20;;
30948;SDS011;17637;51.984;21.208;2023-01-19T15:26:52;53.95;;;36.13;;
30948;SDS011;17637;51.984;21.208;2023-01-19T15:29:24;50.17;;;36.42;;
30948;SDS011;17637;51.984;21.208;2023-01-19T15:31:57;56.08;;;38.10;;
30948;SDS011;17637;51.984;21.208;2023-01-19T15:34:29;58.15;;;36.97;;
30948;SDS011;17637;51.984;21.208;2023-01-19T15:37:01;70.45;;;41.22;;
30948;SDS011;17637;51.984;21.208;2023-01-19T15:39:33;68.38;;;41.95;;
30948;SDS011;17637;51.984;21.208;2023-01-19T15:42:08;57.05;;;37.88;;
30948;SDS011;17637;51.984;21.208;2023-01-19T15:44:43;53.47;;;34.30;;
30948;SDS011;17637;51.984;21.208;2023-01-19T15:47:15;46.90;;;32.30;;
30948;SDS011;17637;51.984;21.208;2023-01-19T15:49:47;46.63;;;31.10;;
30948;SDS011;17637;51.984;21.208;2023-01-19T15:52:19;51.15;;;33.90;;
30948;SDS011;17637;51.984;21.208;2023-01-19T15:54:51;57.75;;;37.40;;
30948;SDS011;17637;51.984;21.208;2023-01-19T15:57:23;59.80;;;39.53;;
30948;SDS011;17637;51.984;21.208;2023-01-19T15:59:55;75.05;;;46.92;;
30948;SDS011;17637;51.984;21.208;2023-01-19T16:02:27;77.55;;;52.92;;
30948;SDS011;17637;51.984;21.208;2023-01-19T16:04:59;68.72;;;41.58;;
30948;SDS011;17637;51.984;21.208;2023-01-19T16:07:32;74.55;;;47.08;;
30948;SDS011;17637;51.984;21.208;2023-01-19T16:10:06;80.18;;;49.00;;
30948;SDS011;17637;51.984;21.208;2023-01-19T16:12:40;71.63;;;43.83;;